2004 BENI (2003313S05079)


On this page: IBTrACS data - Map and Plots - Positions - Intensities - Original source data

Summary

Start Nov 8
End Nov 25
Basin SI
LMI 100 kt
Sources jtwc_sh
reunion
neumann
In WMO? Yes
Previous storm 2003 MELOR (WP)
Previous in basin 2004 ABAIMBA (SI)
Concurrent storms 2004 BENI (SI)
2003 MISSING (NI)
2003 NEPARTAK (WP)
2003 LUPIT (WP)
Next in basin 2004 CELA (SI)
Next storm 2003 MISSING (NI)

top of page IBTrACS Data: File Access

Image of storm

top of page Plots:

Map of storm track will not appear if FTP is down
Time series of cyclone Maximum Sustained Wind will not appear if FTP is down
Time series of cyclone Minimum Central Pressure will not appear if FTP is down

top of page Track Data:Position

jtwc_sh reunion neumann
Date Lat Lon Lat Lon Lat Lon
2003-11-08 12:00:00 -4.9 79.4 -4.9 79.4
2003-11-08 18:00:00 -5.0 79.0 -5.0 79.0
2003-11-09 00:00:00 -5.4 78.7 -5.4 78.7
2003-11-09 06:00:00 -5.9 78.4 -5.9 78.4
2003-11-09 12:00:00 -6.4 78.0 -6.4 78.0
2003-11-09 18:00:00 -6.6 77.5 -6.4 76.9 -6.6 77.5
2003-11-10 00:00:00 -6.8 76.9 -6.7 76.7 -6.8 76.9
2003-11-10 06:00:00 -7.0 76.3 -7.1 76.1 -7.0 76.3
2003-11-10 12:00:00 -7.2 75.9 -7.2 75.8 -7.2 75.9
2003-11-10 18:00:00 -7.4 75.5 -7.2 75.5 -7.4 75.5
2003-11-11 00:00:00 -7.5 75.1 -7.3 75.3 -7.5 75.1
2003-11-11 06:00:00 -7.6 74.8 -7.4 75.3 -7.6 74.8
2003-11-11 12:00:00 -7.9 74.5 -7.9 75.1 -7.9 74.5
2003-11-11 18:00:00 -8.2 74.4 -8.3 75.0 -8.2 74.4
2003-11-12 00:00:00 -8.7 74.4 -8.7 74.8 -8.7 74.4
2003-11-12 06:00:00 -9.2 74.4 -9.3 74.5 -9.2 74.4
2003-11-12 12:00:00 -9.6 74.6 -9.5 74.5 -9.6 74.6
2003-11-12 18:00:00 -10.1 74.8 -10.1 74.8 -10.1 74.8
2003-11-13 00:00:00 -10.6 75.0 -10.5 75.1 -10.6 75.0
2003-11-13 06:00:00 -10.9 75.2 -10.9 75.4 -10.9 75.2
2003-11-13 12:00:00 -11.2 75.7 -11.0 75.8 -11.2 75.7
2003-11-13 18:00:00 -11.6 76.2 -11.2 76.3 -11.6 76.2
2003-11-14 00:00:00 -12.1 76.6 -11.9 77.0 -12.1 76.6
2003-11-14 06:00:00 -12.4 77.4 -12.4 77.5 -12.4 77.4
2003-11-14 12:00:00 -12.7 77.9 -12.8 78.1 -12.7 77.9
jtwc_sh reunion neumann
2003-11-14 18:00:00 -13.0 78.2 -13.0 78.5 -13.0 78.2
2003-11-15 00:00:00 -13.2 78.4 -13.0 78.7 -13.2 78.4
2003-11-15 06:00:00 -13.2 78.5 -13.1 78.8 -13.2 78.5
2003-11-15 12:00:00 -13.1 78.6 -13.2 78.5 -13.1 78.6
2003-11-15 18:00:00 -13.0 78.6 -12.5 78.2 -13.0 78.6
2003-11-16 00:00:00 -12.8 78.5 -12.3 78.7 -12.8 78.5
2003-11-16 06:00:00 -12.6 78.4 -12.2 79.1 -12.6 78.4
2003-11-16 12:00:00 -12.3 78.3 -12.3 78.8 -12.3 78.3
2003-11-16 18:00:00 -12.0 78.0 -12.0 78.2 -12.0 78.0
2003-11-17 00:00:00 -11.9 77.6 -11.8 77.6 -11.9 77.6
2003-11-17 06:00:00 -11.8 77.0 -11.6 77.2 -11.8 77.0
2003-11-17 12:00:00 -11.7 76.5 -11.4 76.8 -11.7 76.5
2003-11-17 18:00:00 -11.5 76.0 -11.3 76.3 -11.5 76.0
2003-11-18 00:00:00 -11.4 75.4 -11.3 75.8 -11.4 75.4
2003-11-18 06:00:00 -11.4 74.9 -11.4 75.2 -11.4 74.9
2003-11-18 12:00:00 -11.5 74.5 -11.5 74.6 -11.5 74.5
2003-11-18 18:00:00 -11.6 74.1 -11.6 74.1 -11.6 74.1
2003-11-19 00:00:00 -11.8 73.6 -11.9 73.6 -11.8 73.6
2003-11-19 06:00:00 -12.0 73.1 -12.1 72.8 -12.0 73.1
2003-11-19 12:00:00 -12.3 72.5 -12.2 72.3 -12.3 72.5
2003-11-19 18:00:00 -12.5 72.0 -12.5 71.8 -12.5 72.0
2003-11-20 00:00:00 -12.7 71.5 -13.0 71.0 -12.7 71.5
2003-11-20 06:00:00 -12.9 70.7 -13.2 70.4 -12.9 70.7
2003-11-20 12:00:00 -13.1 69.7 -13.1 69.3 -13.1 69.7
jtwc_sh reunion neumann
2003-11-20 18:00:00 -13.2 68.5 -13.0 68.2 -13.2 68.5
2003-11-21 00:00:00 -13.3 67.3 -13.1 66.9 -13.3 67.3
2003-11-21 06:00:00 -13.3 65.9 -13.1 65.7 -13.3 65.9
2003-11-21 12:00:00 -12.9 64.5 -12.9 64.2 -12.9 64.5
2003-11-21 18:00:00 -12.7 63.0 -12.6 62.8 -12.7 63.0
2003-11-22 00:00:00 -12.9 61.4 -12.8 61.4 -12.9 61.4
2003-11-22 06:00:00 -13.1 59.8 -13.0 59.7 -13.1 59.8
2003-11-22 12:00:00 -12.8 58.5 -12.8 58.5 -12.8 58.5
2003-11-22 18:00:00 -12.7 57.2 -12.7 57.8 -12.7 57.2
2003-11-23 00:00:00 -12.5 57.0
2003-11-23 06:00:00 -12.2 55.9
2003-11-23 12:00:00 -13.0 54.9
2003-11-23 18:00:00 -13.5 54.4
2003-11-24 00:00:00 -14.1 53.4
2003-11-24 06:00:00 -14.8 52.8
2003-11-24 12:00:00 -14.9 52.7
2003-11-24 18:00:00 -15.1 52.4
2003-11-25 00:00:00 -15.5 52.2
2003-11-25 06:00:00 -16.5 51.9

top of pageTrack Data:Intensity

jtwc_sh reunion neumann
Date Wind Pres Wind Pres Wind Pres
2003-11-08 12:00:00 25. 1002. 25.
2003-11-08 18:00:00 25. 1002. 25.
2003-11-09 00:00:00 30. 1000. 30.
2003-11-09 06:00:00 30. 1000. 30.
2003-11-09 12:00:00 30. 1000. 30.
2003-11-09 18:00:00 30. 1000. 25. 1004. 30.
2003-11-10 00:00:00 30. 1000. 25. 1003. 30.
2003-11-10 06:00:00 30. 1000. 25. 1002. 30.
2003-11-10 12:00:00 35. 997. 27. 1000. 35.
2003-11-10 18:00:00 35. 997. 30. 999. 35.
2003-11-11 00:00:00 40. 994. 30. 998. 40.
2003-11-11 06:00:00 45. 991. 35. 995. 45.
2003-11-11 12:00:00 45. 991. 37. 993. 45.
2003-11-11 18:00:00 50. 987. 40. 990. 50.
2003-11-12 00:00:00 50. 987. 45. 987. 50.
2003-11-12 06:00:00 55. 984. 55. 980. 55.
2003-11-12 12:00:00 60. 980. 60. 975. 60.
2003-11-12 18:00:00 70. 972. 70. 965. 70.
2003-11-13 00:00:00 90. 954. 80. 955. 90.
2003-11-13 06:00:00 90. 954. 95. 935. 90.
2003-11-13 12:00:00 100. 944. 95. 935. 100.
2003-11-13 18:00:00 100. 944. 80. 955. 100.
2003-11-14 00:00:00 75. 967. 55. 980. 75.
2003-11-14 06:00:00 55. 984. 40. 990. 55.
2003-11-14 12:00:00 50. 987. 37. 993. 50.
jtwc_sh reunion neumann
2003-11-14 18:00:00 45. 991. 35. 995. 45.
2003-11-15 00:00:00 45. 991. 30. 997. 45.
2003-11-15 06:00:00 35. 997. 30. 998. 35.
2003-11-15 12:00:00 30. 1000. 27. 999. 30.
2003-11-15 18:00:00 30. 1000. 25. 1000. 30.
2003-11-16 00:00:00 30. 1000. 25. 1000. 30.
2003-11-16 06:00:00 30. 1000. 25. 1002. 30.
2003-11-16 12:00:00 30. 1000. 25. 1002. 30.
2003-11-16 18:00:00 30. 1000. 25. 1002. 30.
2003-11-17 00:00:00 30. 1000. 25. 1002. 30.
2003-11-17 06:00:00 30. 1000. 25. 1002. 30.
2003-11-17 12:00:00 30. 1000. 25. 1000. 30.
2003-11-17 18:00:00 35. 997. 30. 998. 35.
2003-11-18 00:00:00 45. 991. 37. 993. 45.
2003-11-18 06:00:00 55. 984. 50. 985. 55.
2003-11-18 12:00:00 60. 980. 55. 980. 60.
2003-11-18 18:00:00 55. 984. 60. 975. 55.
2003-11-19 00:00:00 55. 984. 65. 970. 55.
2003-11-19 06:00:00 65. 976. 75. 960. 65.
2003-11-19 12:00:00 75. 967. 75. 960. 75.
2003-11-19 18:00:00 70. 972. 75. 960. 70.
2003-11-20 00:00:00 65. 976. 65. 970. 65.
2003-11-20 06:00:00 55. 984. 55. 980. 55.
2003-11-20 12:00:00 45. 991. 40. 990. 45.
jtwc_sh reunion neumann
2003-11-20 18:00:00 35. 991. 35. 995. 35.
2003-11-21 00:00:00 35. 997. 30. 997. 35.
2003-11-21 06:00:00 30. 1000. 30. 999. 30.
2003-11-21 12:00:00 30. 1000. 30. 1000. 30.
2003-11-21 18:00:00 30. 1000. 27. 1002. 30.
2003-11-22 00:00:00 30. 1000. 25. 1004. 30.
2003-11-22 06:00:00 30. 1000. 25. 1005. 30.
2003-11-22 12:00:00 30. 1000. 25. 1005. 30.
2003-11-22 18:00:00 25. 1002. 25. 1006. 25.
2003-11-23 00:00:00 25. 1006.
2003-11-23 06:00:00 25. 1007.
2003-11-23 12:00:00 25. 1007.
2003-11-23 18:00:00 20. 1008.
2003-11-24 00:00:00 20. 1008.
2003-11-24 06:00:00 20. 1009.
2003-11-24 12:00:00 20. 1009.
2003-11-24 18:00:00 20. 1009.
2003-11-25 00:00:00 20. 1009.
2003-11-25 06:00:00 20. 1010.

top of page Links to source data

Source Source file Format
jtwc_sh bsh022004.txt ATCF
reunion Best-Tracks-current.txt:Line=28:BENI WMO (old format)
neumann tracks.sh:Storm=1281:BENI:BSH022004:JTWC HURDAT